Time;durP1;ratioP1;P1;durP2;ratioP2;P2;SDS_P1;SDS_P2;PMS_P1;PMS_P2;Temp;Humidity;BMP_temperature;BMP_pressure;BME280_temperature;BME280_humidity;BME280_pressure;Samples;Min_cycle;Max_cycle;Signal;HPM_P1;HPM_P2
2021/01/29 00:00:10;;;;;;;9.27;4.65;;;;;;;9.59;59.47;99532.34;4981011;28;98225;-61
2021/01/29 00:02:36;;;;;;;7.57;4.55;;;;;;;9.56;58.84;99529.41;4995462;27;110802;-61
2021/01/29 00:05:02;;;;;;;6.97;4.15;;;;;;;9.56;58.71;99530.22;4982979;27;98627;-60
2021/01/29 00:07:28;;;;;;;7.47;4.20;;;;;;;9.55;59.03;99527.81;5000595;27;120052;-60
2021/01/29 00:09:55;;;;;;;6.32;3.95;;;;;;;9.53;59.10;99525.41;5000588;27;127122;-60
2021/01/29 00:12:23;;;;;;;7.43;3.72;;;;;;;9.51;59.00;99526.75;4999869;27;117938;-61
2021/01/29 00:14:49;;;;;;;6.00;3.47;;;;;;;9.52;59.13;99526.50;5001165;27;98698;-61
2021/01/29 00:17:15;;;;;;;7.20;3.70;;;;;;;9.51;59.19;99522.22;4995352;27;124750;-60
2021/01/29 00:19:42;;;;;;;6.80;3.78;;;;;;;9.49;59.01;99518.19;4980437;28;117851;-60
2021/01/29 00:22:08;;;;;;;6.88;3.40;;;;;;;9.49;59.05;99516.28;4981373;28;112614;-60
2021/01/29 00:24:34;;;;;;;6.60;3.20;;;;;;;9.48;59.03;99508.50;4978914;28;119874;-60
2021/01/29 00:27:00;;;;;;;4.55;2.92;;;;;;;9.46;58.93;99513.38;4979759;28;128103;-61
2021/01/29 00:29:26;;;;;;;5.53;3.00;;;;;;;9.45;59.03;99515.25;4980461;28;127676;-60
2021/01/29 00:31:52;;;;;;;4.72;2.70;;;;;;;9.47;59.10;99513.09;4978826;28;101647;-60
2021/01/29 00:34:18;;;;;;;4.65;2.90;;;;;;;9.44;59.04;99516.34;4962485;28;100427;-60
2021/01/29 00:36:44;;;;;;;4.50;2.47;;;;;;;9.43;59.60;99505.84;4977961;28;127221;-62
2021/01/29 00:39:10;;;;;;;4.18;2.55;;;;;;;9.42;58.91;99501.56;4961350;28;127549;-60
2021/01/29 00:41:36;;;;;;;4.35;2.53;;;;;;;9.41;59.08;99505.34;4980802;27;118842;-61
2021/01/29 00:44:03;;;;;;;3.90;2.00;;;;;;;9.40;58.82;99509.13;4979576;27;128042;-61
2021/01/29 00:46:29;;;;;;;3.67;2.15;;;;;;;9.39;58.68;99513.69;4993042;27;98632;-60
2021/01/29 00:48:55;;;;;;;3.13;1.75;;;;;;;9.40;58.69;99509.13;4999708;27;115874;-60
2021/01/29 00:51:21;;;;;;;3.83;1.90;;;;;;;9.41;58.77;99502.66;5000778;27;116045;-61
2021/01/29 00:53:47;;;;;;;2.88;1.98;;;;;;;9.37;58.95;99505.09;4999565;27;127485;-62
2021/01/29 00:56:13;;;;;;;3.35;1.73;;;;;;;9.36;58.94;99506.19;5000253;27;128279;-60
2021/01/29 00:58:39;;;;;;;2.95;1.70;;;;;;;9.36;59.09;99498.13;4999958;27;126129;-60
2021/01/29 01:01:06;;;;;;;2.72;1.75;;;;;;;9.34;59.12;99502.97;4982735;27;98200;-60
2021/01/29 01:03:32;;;;;;;3.53;1.50;;;;;;;9.32;58.82;99497.09;4980487;27;129680;-60
2021/01/29 01:05:58;;;;;;;3.90;1.90;;;;;;;9.27;59.21;99497.09;5000583;27;118656;-61
2021/01/29 01:08:24;;;;;;;3.00;1.50;;;;;;;9.28;59.08;99498.72;4999726;27;118930;-61
2021/01/29 01:10:50;;;;;;;2.33;1.50;;;;;;;9.23;59.50;99493.38;4999670;27;117815;-59
2021/01/29 01:13:17;;;;;;;3.08;1.70;;;;;;;9.26;58.90;99496.31;4997602;27;98447;-61
2021/01/29 01:15:43;;;;;;;2.88;1.50;;;;;;;9.26;58.60;99496.31;4977902;27;128300;-61
2021/01/29 01:18:09;;;;;;;2.65;1.42;;;;;;;9.25;58.45;99494.72;4979933;28;126976;-60
2021/01/29 01:20:35;;;;;;;2.20;1.27;;;;;;;9.26;59.27;99479.38;4979795;27;116959;-61
2021/01/29 01:23:01;;;;;;;2.45;1.50;;;;;;;9.26;59.16;99466.72;4981164;27;97925;-61
2021/01/29 01:25:28;;;;;;;2.58;1.40;;;;;;;9.28;59.22;99466.47;4984160;28;98094;-61
2021/01/29 01:27:54;;;;;;;2.30;1.40;;;;;;;9.33;58.52;99467.22;4983321;28;98181;-61
2021/01/29 01:30:26;;;;;;;2.00;1.15;;;;;;;9.33;58.50;99469.91;4984776;28;97918;-60
2021/01/29 01:32:52;;;;;;;3.25;1.17;;;;;;;9.37;58.41;99472.81;4983323;27;116901;-60
2021/01/29 01:35:19;;;;;;;1.80;1.10;;;;;;;9.47;57.54;99478.13;4965788;28;99309;-61
2021/01/29 01:37:45;;;;;;;1.83;1.33;;;;;;;9.48;57.93;99478.94;4965346;28;98092;-60
2021/01/29 01:40:12;;;;;;;2.28;1.33;;;;;;;9.49;57.94;99475.13;4982169;28;98276;-61
2021/01/29 01:42:38;;;;;;;2.78;1.30;;;;;;;9.49;57.92;99481.31;4980944;28;108411;-60
2021/01/29 01:45:29;;;;;;;2.20;1.40;;;;;;;9.54;57.44;99478.56;4996061;27;127701;-60
2021/01/29 01:48:00;;;;;;;2.17;1.30;;;;;;;9.56;57.72;99491.75;5003785;27;98063;-60
2021/01/29 01:50:34;;;;;;;1.90;1.17;;;;;;;9.54;58.02;99491.22;5003962;27;98088;-61
2021/01/29 01:53:17;;;;;;;2.17;1.30;;;;;;;9.51;57.99;99491.78;4984780;27;108280;-60
2021/01/29 01:55:43;;;;;;;2.92;1.58;;;;;;;9.56;57.22;99489.06;4967771;28;116992;-62
2021/01/29 01:58:09;;;;;;;2.28;1.17;;;;;;;9.59;57.53;99483.13;4980465;28;127549;-60
2021/01/29 02:00:35;;;;;;;1.80;1.30;;;;;;;9.58;58.02;99470.72;4980597;28;118235;-61
2021/01/29 02:03:12;;;;;;;2.30;1.10;;;;;;;9.56;57.65;99454.09;4981168;28;126889;-60
2021/01/29 02:05:39;;;;;;;1.88;1.13;;;;;;;9.62;57.78;99452.94;4964963;28;113308;-60
2021/01/29 02:08:15;;;;;;;2.08;1.20;;;;;;;9.59;57.88;99465.09;4964363;28;112644;-60
2021/01/29 02:10:41;;;;;;;2.88;1.20;;;;;;;9.61;57.99;99466.69;4981681;28;100636;-60
2021/01/29 02:13:08;;;;;;;1.70;1.30;;;;;;;9.58;57.54;99468.84;4983912;27;108117;-61
2021/01/29 02:15:39;;;;;;;1.98;1.10;;;;;;;9.55;57.61;99466.75;5002993;27;98618;-60
2021/01/29 02:18:20;;;;;;;2.47;1.40;;;;;;;9.56;57.81;99473.72;4984155;27;122003;-60
2021/01/29 02:21:42;;;;;;;2.30;1.20;;;;;;;9.57;57.49;99466.44;5001292;27;97991;-60
2021/01/29 02:24:36;;;;;;;2.80;1.20;;;;;;;9.55;57.55;99450.59;4983024;27;98207;-61
2021/01/29 02:27:27;;;;;;;1.45;1.00;;;;;;;9.57;57.43;99434.16;4984237;27;98937;-61
2021/01/29 02:30:11;;;;;;;1.85;1.13;;;;;;;9.56;57.41;99435.25;4965113;28;97999;-61
2021/01/29 02:33:24;;;;;;;1.88;1.10;;;;;;;9.55;57.70;99436.34;4983767;27;97811;-61
2021/01/29 02:36:08;;;;;;;2.00;1.17;;;;;;;9.55;58.17;99436.34;4981740;27;98345;-61
2021/01/29 02:38:47;;;;;;;1.40;1.00;;;;;;;9.56;57.22;99443.31;4981439;28;98568;-60
2021/01/29 02:41:49;;;;;;;1.98;1.30;;;;;;;9.53;57.49;99454.66;4980714;28;120863;-61
2021/01/29 02:44:37;;;;;;;1.67;1.13;;;;;;;9.56;57.13;99449.50;4980982;27;98042;-60
2021/01/29 02:47:14;;;;;;;1.50;1.10;;;;;;;9.53;57.69;99443.88;4983644;27;124525;-60
2021/01/29 02:50:18;;;;;;;1.60;1.10;;;;;;;9.50;58.04;99450.63;4984316;27;118589;-61
2021/01/29 02:53:16;;;;;;;2.58;1.23;;;;;;;9.51;58.16;99454.94;4980760;28;98083;-61
2021/01/29 02:55:48;;;;;;;2.60;1.20;;;;;;;9.53;57.93;99451.97;4981199;28;97978;-60
2021/01/29 02:58:40;;;;;;;1.60;0.93;;;;;;;9.51;57.90;99454.94;4980379;28;107319;-60
2021/01/29 03:01:21;;;;;;;2.28;1.50;;;;;;;9.52;57.92;99443.09;4981634;27;98521;-60
2021/01/29 03:03:57;;;;;;;2.08;1.38;;;;;;;9.53;58.25;99441.19;4977002;28;98506;-61
2021/01/29 03:06:44;;;;;;;1.80;1.20;;;;;;;9.56;58.28;99435.25;4965320;28;97986;-61
2021/01/29 03:09:23;;;;;;;2.38;1.30;;;;;;;9.54;57.64;99427.44;4980984;28;103341;-60
2021/01/29 03:12:17;;;;;;;1.92;1.60;;;;;;;9.51;58.20;99425.34;4967488;28;98567;-61
2021/01/29 03:14:54;;;;;;;2.22;1.23;;;;;;;9.52;57.89;99412.69;4965671;28;121990;-61
2021/01/29 03:17:40;;;;;;;1.85;1.20;;;;;;;9.49;57.89;99407.88;4983393;27;97868;-60
2021/01/29 03:20:42;;;;;;;2.03;1.30;;;;;;;9.50;57.38;99404.09;4969073;27;124695;-61
2021/01/29 03:23:15;;;;;;;2.80;1.10;;;;;;;9.45;57.81;99402.28;4983203;27;98038;-60
2021/01/29 03:25:45;;;;;;;2.00;1.30;;;;;;;9.48;57.98;99398.22;4968574;27;100315;-61
2021/01/29 03:28:21;;;;;;;1.85;1.20;;;;;;;9.48;57.44;99404.41;4983677;27;109458;-61
2021/01/29 03:30:50;;;;;;;2.00;1.23;;;;;;;9.51;57.39;99401.16;4966448;27;119197;-60
2021/01/29 03:33:16;;;;;;;2.13;1.25;;;;;;;9.51;58.19;99398.44;4966961;27;98737;-61
2021/01/29 03:36:04;;;;;;;1.83;1.35;;;;;;;9.48;57.87;99395.53;4983808;27;97903;-61
2021/01/29 03:38:59;;;;;;;2.58;1.25;;;;;;;9.48;58.02;99388.25;4967712;27;97959;-61
2021/01/29 03:41:40;;;;;;;1.92;1.00;;;;;;;9.48;57.63;99374.81;4977297;28;121086;-60
2021/01/29 03:44:49;;;;;;;1.95;1.25;;;;;;;9.48;57.85;99368.63;4962821;28;116889;-61
2021/01/29 03:47:25;;;;;;;2.00;1.38;;;;;;;9.48;58.31;99374.00;4996149;27;98632;-61
2021/01/29 03:50:40;;;;;;;2.25;1.23;;;;;;;9.49;57.73;99370.22;4999571;27;109854;-61
2021/01/29 03:53:31;;;;;;;1.85;1.40;;;;;;;9.49;57.44;99365.63;4962930;27;123814;-61
2021/01/29 03:56:07;;;;;;;1.80;1.30;;;;;;;9.46;57.53;99363.50;5001561;27;98630;-61
2021/01/29 03:58:57;;;;;;;2.35;1.35;;;;;;;9.46;58.14;99368.09;4998910;27;97933;-61
2021/01/29 04:02:01;;;;;;;2.38;1.30;;;;;;;9.50;58.03;99369.94;5000999;27;97851;-60
2021/01/29 04:04:31;;;;;;;1.92;1.25;;;;;;;9.49;57.85;99373.72;4968824;27;123200;-62
2021/01/29 04:07:17;;;;;;;2.40;1.42;;;;;;;9.46;57.67;99360.81;4966265;27;100989;-60
2021/01/29 04:09:56;;;;;;;1.90;1.20;;;;;;;9.47;57.41;99350.88;4983228;27;98175;-61
2021/01/29 04:12:33;;;;;;;1.88;1.10;;;;;;;9.50;57.25;99353.00;5001717;27;101564;-61
2021/01/29 04:15:18;;;;;;;1.83;1.20;;;;;;;9.47;57.30;99349.00;4970756;28;98632;-61
2021/01/29 04:17:59;;;;;;;1.80;1.20;;;;;;;9.48;58.16;99347.09;4979185;28;98776;-61
2021/01/29 04:20:34;;;;;;;1.80;1.20;;;;;;;9.46;57.75;99342.00;4963396;28;98090;-61
2021/01/29 04:23:01;;;;;;;1.95;1.05;;;;;;;9.46;58.19;99344.69;4978657;28;109868;-60
2021/01/29 04:25:32;;;;;;;2.42;1.08;;;;;;;9.45;57.54;99342.28;4961983;28;117180;-61
2021/01/29 04:28:07;;;;;;;2.00;1.20;;;;;;;9.44;57.81;99336.13;4962163;28;98993;-61
2021/01/29 04:30:33;;;;;;;1.80;1.23;;;;;;;9.44;57.98;99328.06;4978889;28;114488;-61
2021/01/29 04:33:17;;;;;;;1.50;1.15;;;;;;;9.44;58.28;99338.00;4946310;28;97929;-60
2021/01/29 04:35:43;;;;;;;2.13;1.05;;;;;;;9.44;57.66;99327.25;4948235;28;98374;-60
2021/01/29 04:38:15;;;;;;;1.40;0.93;;;;;;;9.41;57.76;99319.75;4962063;28;125831;-61
2021/01/29 04:41:08;;;;;;;2.30;1.13;;;;;;;9.41;58.02;99322.44;4978989;28;98293;-61
2021/01/29 04:44:18;;;;;;;1.75;1.10;;;;;;;9.37;57.69;99316.84;4964386;28;98050;-60
2021/01/29 04:47:25;;;;;;;1.98;0.88;;;;;;;9.41;58.18;99317.06;4978124;28;121730;-60
2021/01/29 04:50:22;;;;;;;1.30;0.80;;;;;;;9.38;57.80;99306.88;4975457;27;98363;-61
2021/01/29 04:53:35;;;;;;;2.55;0.82;;;;;;;9.36;57.87;99287.53;4979106;28;98431;-61
2021/01/29 04:56:09;;;;;;;1.63;0.90;;;;;;;9.36;58.03;99292.91;4985783;28;97904;-60
2021/01/29 04:58:48;;;;;;;1.48;0.93;;;;;;;9.38;57.64;99274.59;4981581;27;99154;-61
2021/01/29 05:01:37;;;;;;;1.70;0.90;;;;;;;9.38;58.08;99266.53;4966914;28;124101;-60
2021/01/29 05:04:31;;;;;;;1.80;1.00;;;;;;;9.37;57.40;99264.94;4984293;27;98015;-60
2021/01/29 05:07:31;;;;;;;1.95;1.08;;;;;;;9.33;57.85;99259.31;4984571;27;97812;-61
2021/01/29 05:10:35;;;;;;;2.05;0.90;;;;;;;9.28;58.01;99254.03;4989023;27;98823;-59
2021/01/29 05:13:31;;;;;;;1.80;1.00;;;;;;;9.27;58.03;99239.75;5005707;27;112491;-61
2021/01/29 05:16:45;;;;;;;1.20;0.80;;;;;;;9.24;58.02;99242.25;5004438;27;98215;-60
2021/01/29 05:19:53;;;;;;;1.73;0.82;;;;;;;9.25;58.46;99238.44;5004352;27;98058;-60
2021/01/29 05:22:50;;;;;;;1.50;0.90;;;;;;;9.24;58.00;99234.97;4994256;27;98441;-61
2021/01/29 05:25:34;;;;;;;1.88;1.13;;;;;;;9.24;57.95;99226.91;4982148;28;98679;-60
2021/01/29 05:28:20;;;;;;;1.85;0.98;;;;;;;9.25;57.73;99217.72;4983678;27;98371;-60
2021/01/29 05:31:25;;;;;;;1.63;0.80;;;;;;;9.23;58.23;99219.09;4982334;28;112765;-61
2021/01/29 05:34:12;;;;;;;2.17;1.02;;;;;;;9.23;58.17;99205.66;4980967;28;98469;-60
2021/01/29 05:36:59;;;;;;;1.73;0.90;;;;;;;9.23;57.91;99209.16;4983825;27;99131;-60
2021/01/29 05:40:05;;;;;;;1.35;1.10;;;;;;;9.22;57.50;99201.38;4984203;27;98141;-61
2021/01/29 05:42:44;;;;;;;2.90;1.30;;;;;;;9.21;57.99;99181.75;4984235;28;98645;-61
2021/01/29 05:45:53;;;;;;;2.25;1.15;;;;;;;9.21;58.04;99172.91;4982109;28;99559;-60
2021/01/29 05:48:47;;;;;;;2.60;1.20;;;;;;;9.23;57.84;99176.88;4953201;28;123774;-61
2021/01/29 05:51:49;;;;;;;1.63;1.13;;;;;;;9.17;58.42;99172.66;4983560;27;97979;-61
2021/01/29 05:54:30;;;;;;;2.63;1.27;;;;;;;9.19;57.97;99175.06;4982831;28;97842;-60
2021/01/29 05:57:22;;;;;;;1.80;1.20;;;;;;;9.20;57.97;99184.75;4980562;28;124491;-61
2021/01/29 06:00:23;;;;;;;2.15;1.30;;;;;;;9.18;57.78;99168.88;4981143;28;98890;-61
2021/01/29 06:03:29;;;;;;;2.00;1.27;;;;;;;9.16;57.95;99164.91;4980583;28;123779;-60
2021/01/29 06:06:36;;;;;;;2.08;1.50;;;;;;;9.15;57.75;99150.63;4985655;27;97831;-60
2021/01/29 06:09:26;;;;;;;2.25;1.50;;;;;;;9.17;57.97;99150.38;4992760;27;98330;-60
2021/01/29 06:12:32;;;;;;;2.40;1.50;;;;;;;9.16;57.72;99160.31;5001023;27;99289;-60
2021/01/29 06:15:41;;;;;;;2.25;1.35;;;;;;;9.13;58.20;99149.34;5002705;27;98366;-60
2021/01/29 06:19:09;;;;;;;2.35;1.30;;;;;;;9.13;57.91;99149.34;5004380;27;98123;-60
2021/01/29 06:22:00;;;;;;;2.33;1.50;;;;;;;9.16;57.37;99141.50;5001647;27;98436;-61
2021/01/29 06:25:09;;;;;;;2.20;1.27;;;;;;;9.15;57.61;99141.78;5000222;27;122778;-60
2021/01/29 06:28:12;;;;;;;2.13;1.30;;;;;;;9.12;57.44;99136.97;4986386;27;98556;-61
2021/01/29 06:31:19;;;;;;;2.38;1.20;;;;;;;9.13;57.66;99130.53;5004252;27;97673;-60
2021/01/29 06:34:10;;;;;;;2.38;1.25;;;;;;;9.13;57.71;99125.16;5001793;27;99070;-60
2021/01/29 06:37:02;;;;;;;2.30;1.23;;;;;;;9.14;57.77;99124.84;4982064;27;98952;-61
2021/01/29 06:39:59;;;;;;;3.70;1.20;;;;;;;9.13;57.40;99117.88;4982401;27;98436;-60
2021/01/29 06:43:03;;;;;;;1.92;1.17;;;;;;;9.15;57.32;99115.69;4984002;28;97966;-61
2021/01/29 06:46:06;;;;;;;2.42;1.38;;;;;;;9.10;57.35;99108.50;4982405;28;98333;-61
2021/01/29 06:49:10;;;;;;;2.55;1.10;;;;;;;9.10;57.89;99094.25;4982641;27;98221;-60
2021/01/29 06:52:07;;;;;;;1.65;1.15;;;;;;;9.12;57.28;99093.97;4982799;28;97969;-61
2021/01/29 06:55:10;;;;;;;1.77;1.25;;;;;;;9.07;57.37;99092.16;4981140;28;97756;-60
2021/01/29 06:58:08;;;;;;;2.08;1.05;;;;;;;9.07;57.53;99084.06;4982602;27;98390;-60
2021/01/29 07:01:08;;;;;;;4.20;1.60;;;;;;;9.12;57.50;99084.03;4981004;28;98721;-61
2021/01/29 07:04:17;;;;;;;2.30;1.40;;;;;;;9.09;56.98;99077.34;4992172;27;109539;-61
2021/01/29 07:07:31;;;;;;;2.70;1.67;;;;;;;9.10;57.65;99075.44;5002943;27;97828;-60
2021/01/29 07:10:20;;;;;;;2.22;1.55;;;;;;;9.13;57.40;99076.75;5000992;27;124033;-61
2021/01/29 07:12:55;;;;;;;3.20;1.50;;;;;;;9.16;58.06;99065.44;4994255;27;121561;-61
2021/01/29 07:16:09;;;;;;;3.20;1.77;;;;;;;9.15;57.43;99067.28;4980499;28;98856;-60
2021/01/29 07:19:15;;;;;;;2.80;1.70;;;;;;;9.14;57.75;99059.53;4980426;28;97963;-60
2021/01/29 07:22:22;;;;;;;2.30;1.45;;;;;;;9.16;58.00;99052.00;4980718;27;97952;-60
2021/01/29 07:25:06;;;;;;;3.53;1.70;;;;;;;9.22;58.15;99045.44;4980436;28;98316;-60
2021/01/29 07:28:04;;;;;;;2.75;1.70;;;;;;;9.23;58.09;99041.63;4982046;27;98538;-60
2021/01/29 07:31:13;;;;;;;2.08;1.40;;;;;;;9.25;57.59;99042.94;4982891;27;97891;-60
2021/01/29 07:33:54;;;;;;;1.83;1.20;;;;;;;9.27;58.13;99026.50;4967670;28;98203;-60
2021/01/29 07:36:42;;;;;;;2.97;1.45;;;;;;;9.27;57.80;99027.31;4964031;28;118043;-61
2021/01/29 07:39:41;;;;;;;2.45;1.42;;;;;;;9.30;58.08;99025.94;4981839;27;97769;-60
2021/01/29 07:42:51;;;;;;;2.40;1.38;;;;;;;9.39;58.01;99021.47;4981179;28;98222;-60
2021/01/29 07:45:39;;;;;;;2.28;1.50;;;;;;;9.49;58.22;99015.94;4981978;27;98877;-61
2021/01/29 07:48:40;;;;;;;2.00;1.50;;;;;;;9.56;57.79;99007.50;4979168;28;122745;-61
2021/01/29 07:51:46;;;;;;;2.53;1.50;;;;;;;9.59;57.83;99005.03;4949466;28;98126;-62
2021/01/29 07:54:49;;;;;;;3.35;1.40;;;;;;;9.70;57.83;98999.44;4982158;27;98978;-60
2021/01/29 07:57:38;;;;;;;1.90;1.23;;;;;;;9.75;57.85;98997.47;4982124;27;98196;-60
2021/01/29 08:00:26;;;;;;;3.08;1.30;;;;;;;9.74;57.65;98995.84;4993013;27;99408;-60
2021/01/29 08:03:44;;;;;;;2.15;1.52;;;;;;;9.74;57.83;98995.06;4963245;28;97920;-61
2021/01/29 08:06:18;;;;;;;3.08;1.73;;;;;;;9.78;57.89;98980.72;4981760;27;98069;-61
2021/01/29 08:09:02;;;;;;;2.90;1.70;;;;;;;9.81;58.16;98979.31;4964353;28;104265;-60
2021/01/29 08:11:28;;;;;;;1.92;1.50;;;;;;;9.85;58.29;98974.94;4978127;27;98940;-60
2021/01/29 08:14:00;;;;;;;2.33;1.70;;;;;;;9.89;58.53;98959.78;4948940;28;123871;-61
2021/01/29 08:17:09;;;;;;;3.20;1.90;;;;;;;9.93;58.46;98963.47;4963299;28;98006;-60
2021/01/29 08:20:08;;;;;;;2.75;1.70;;;;;;;10.01;59.35;98962.00;4992877;27;98145;-61
2021/01/29 08:22:51;;;;;;;2.40;1.70;;;;;;;9.96;58.77;98952.13;4988341;27;98584;-60
2021/01/29 08:25:38;;;;;;;2.78;1.70;;;;;;;10.10;58.66;98954.81;5001299;27;98221;-60
2021/01/29 08:28:34;;;;;;;2.92;1.58;;;;;;;10.13;59.58;98948.03;4988919;27;115693;-61
2021/01/29 08:31:40;;;;;;;2.72;1.30;;;;;;;10.17;59.23;98936.34;4977501;28;126980;-61
2021/01/29 08:34:20;;;;;;;2.72;1.40;;;;;;;10.25;58.92;98924.09;4978643;28;98639;-61
2021/01/29 08:37:25;;;;;;;3.08;1.50;;;;;;;10.31;59.22;98920.22;4978873;27;101174;-60
2021/01/29 08:40:31;;;;;;;2.45;1.60;;;;;;;10.29;59.81;98917.81;4981583;27;108488;-61
2021/01/29 08:43:15;;;;;;;3.03;1.52;;;;;;;10.29;59.43;98917.00;4979868;27;98278;-61
2021/01/29 08:46:12;;;;;;;2.55;1.65;;;;;;;10.28;60.20;98910.84;4981300;27;98685;-61
2021/01/29 08:49:25;;;;;;;2.20;1.65;;;;;;;10.27;60.09;98897.69;4990264;27;113818;-61
2021/01/29 08:52:35;;;;;;;2.80;1.70;;;;;;;10.19;60.99;98891.06;4985998;27;98568;-61
2021/01/29 08:55:22;;;;;;;2.55;1.73;;;;;;;10.24;60.71;98895.56;4986429;27;99017;-61
2021/01/29 08:58:00;;;;;;;2.58;1.70;;;;;;;10.24;60.12;98893.66;4964288;28;99014;-61
2021/01/29 09:00:29;;;;;;;3.05;1.70;;;;;;;10.25;60.63;98891.78;4963540;28;98216;-60
2021/01/29 09:03:13;;;;;;;3.55;1.80;;;;;;;10.28;60.18;98883.91;4963966;28;98263;-60
2021/01/29 09:05:41;;;;;;;2.83;1.70;;;;;;;10.24;60.89;98882.88;4986655;27;98612;-61
2021/01/29 09:08:07;;;;;;;2.65;1.70;;;;;;;10.28;60.49;98866.94;4978505;28;111143;-60
2021/01/29 09:10:48;;;;;;;2.20;1.75;;;;;;;10.30;60.55;98870.94;4963040;27;98807;-60
2021/01/29 09:13:22;;;;;;;2.40;1.60;;;;;;;10.31;60.99;98864.44;5001392;27;98074;-62
2021/01/29 09:16:20;;;;;;;2.50;1.58;;;;;;;10.37;61.10;98858.94;4980735;27;126035;-60
2021/01/29 09:19:03;;;;;;;4.30;2.20;;;;;;;10.39;60.78;98846.75;4977105;27;98433;-61
2021/01/29 09:22:00;;;;;;;4.68;2.30;;;;;;;10.47;60.84;98843.34;4987528;27;98838;-60
2021/01/29 09:25:00;;;;;;;3.75;2.22;;;;;;;10.55;61.02;98842.59;4988546;27;98049;-60
2021/01/29 09:27:54;;;;;;;3.67;2.20;;;;;;;10.57;60.15;98839.59;4964306;28;98390;-60
2021/01/29 09:30:37;;;;;;;5.50;2.05;;;;;;;10.67;60.62;98828.59;4977746;28;98277;-61
2021/01/29 09:33:33;;;;;;;3.92;2.45;;;;;;;10.73;60.82;98830.06;4993257;27;122818;-60
2021/01/29 09:36:31;;;;;;;3.20;2.47;;;;;;;10.80;60.97;98824.22;4977761;27;114882;-61
2021/01/29 09:39:06;;;;;;;4.25;2.33;;;;;;;10.86;61.04;98822.22;4978202;28;119893;-60
2021/01/29 09:41:59;;;;;;;3.05;2.22;;;;;;;10.83;61.20;98818.22;4962412;28;98368;-60
2021/01/29 09:44:33;;;;;;;2.80;1.80;;;;;;;10.83;61.78;98818.22;4996097;27;98025;-60
2021/01/29 09:47:02;;;;;;;2.65;2.00;;;;;;;10.81;61.82;98813.16;4985275;27;98161;-60
2021/01/29 09:49:30;;;;;;;2.75;2.10;;;;;;;10.79;62.08;98812.66;4985589;27;97803;-60
2021/01/29 09:52:46;;;;;;;3.35;2.40;;;;;;;10.77;62.05;98817.56;4981057;28;120682;-61
2021/01/29 09:55:28;;;;;;;6.25;3.67;;;;;;;10.84;62.00;98805.53;4962714;27;97856;-60
2021/01/29 09:58:11;;;;;;;6.57;4.10;;;;;;;10.86;62.22;98801.44;4966150;28;97924;-60
2021/01/29 10:00:37;;;;;;;6.35;4.15;;;;;;;10.89;62.36;98797.34;4972813;27;99088;-60
2021/01/29 10:03:23;;;;;;;5.53;4.18;;;;;;;10.89;62.76;98797.34;4983834;27;124361;-61
2021/01/29 10:05:50;;;;;;;4.78;3.78;;;;;;;10.87;62.67;98794.94;4984608;27;98833;-60
2021/01/29 10:08:21;;;;;;;4.90;3.75;;;;;;;10.80;62.52;98797.25;4999515;27;99807;-60
2021/01/29 10:11:24;;;;;;;4.63;3.83;;;;;;;10.78;62.81;98794.09;5000664;27;99163;-61
2021/01/29 10:14:12;;;;;;;;;;;;;;;10.84;62.66;98792.84;4965688;27;98819;-61
2021/01/29 10:16:47;;;;;;;4.68;3.25;;;;;;;10.78;62.75;98788.72;5017923;27;99924;-61
2021/01/29 10:19:38;;;;;;;4.30;3.30;;;;;;;10.79;62.55;98787.59;4990868;27;98175;-60
2021/01/29 10:22:17;;;;;;;5.10;3.13;;;;;;;10.75;62.25;98781.22;4979021;28;99840;-61
2021/01/29 10:25:08;;;;;;;4.53;2.97;;;;;;;10.72;62.51;98779.94;4981404;27;120725;-61
2021/01/29 10:28:06;;;;;;;4.47;3.30;;;;;;;10.69;61.72;98777.06;5002229;27;98405;-61
2021/01/29 10:30:48;;;;;;;3.35;2.88;;;;;;;10.68;63.05;98778.19;4986569;27;100255;-61
2021/01/29 10:33:31;;;;;;;3.65;2.95;;;;;;;10.66;62.76;98772.31;5003361;27;98251;-61
2021/01/29 10:36:02;;;;;;;3.75;2.83;;;;;;;10.65;62.15;98776.91;4962250;27;99675;-60
2021/01/29 10:38:50;;;;;;;3.83;3.03;;;;;;;10.60;63.05;98776.22;4975198;28;98014;-61
2021/01/29 10:41:53;;;;;;;4.00;3.13;;;;;;;10.57;63.19;98770.38;4999355;27;114421;-61
2021/01/29 10:44:27;;;;;;;3.30;3.00;;;;;;;10.55;63.66;98763.69;5001549;27;98384;-61
2021/01/29 10:47:20;;;;;;;4.45;4.03;;;;;;;10.46;62.55;98757.47;4988588;27;101390;-61
2021/01/29 10:50:17;;;;;;;4.90;4.20;;;;;;;10.46;62.42;98752.06;4985482;27;98435;-60
2021/01/29 10:53:15;;;;;;;4.60;3.83;;;;;;;10.38;62.39;98747.41;5001064;27;97869;-61
2021/01/29 10:55:56;;;;;;;4.90;4.22;;;;;;;10.41;63.14;98752.97;5000272;27;99139;-61
2021/01/29 10:58:56;;;;;;;4.60;4.05;;;;;;;10.39;62.76;98744.41;4971345;27;98304;-61
2021/01/29 11:01:35;;;;;;;5.25;4.20;;;;;;;10.36;62.21;98738.84;4973526;28;97898;-60
2021/01/29 11:04:32;;;;;;;4.65;3.88;;;;;;;10.42;62.29;98737.63;4980900;28;97803;-60
2021/01/29 11:07:05;;;;;;;4.50;4.05;;;;;;;10.42;62.10;98737.63;4982033;27;98787;-60
2021/01/29 11:09:35;;;;;;;4.75;4.25;;;;;;;10.41;62.02;98728.72;4978562;28;98985;-61
2021/01/29 11:12:34;;;;;;;4.57;3.90;;;;;;;10.43;61.60;98737.31;4963473;28;109409;-61
2021/01/29 11:15:23;;;;;;;4.57;4.00;;;;;;;10.46;62.50;98717.84;4965973;27;97832;-61
2021/01/29 11:18:16;;;;;;;5.57;4.22;;;;;;;10.48;62.33;98720.22;4971361;28;98319;-61
2021/01/29 11:20:42;;;;;;;5.05;3.58;;;;;;;10.48;61.93;98710.22;4964992;28;123144;-60
2021/01/29 11:24:04;;;;;;;5.93;3.85;;;;;;;10.50;62.71;98707.25;4946119;28;127459;-61
2021/01/29 11:26:48;;;;;;;4.55;3.67;;;;;;;10.55;61.68;98702.50;4960933;27;97975;-60
2021/01/29 11:30:18;;;;;;;3.65;3.25;;;;;;;10.59;62.01;98694.59;4969996;27;123433;-60
2021/01/29 11:32:53;;;;;;;3.20;2.90;;;;;;;10.59;62.26;98693.81;4975361;27;99444;-61
2021/01/29 11:35:47;;;;;;;3.22;2.75;;;;;;;10.61;62.44;98695.09;4984914;27;98323;-61
2021/01/29 11:38:26;;;;;;;4.00;2.75;;;;;;;10.61;61.95;98694.28;4993029;27;97916;-61
2021/01/29 11:41:36;;;;;;;4.13;2.60;;;;;;;10.56;62.30;98679.06;4979246;28;98199;-61
2021/01/29 11:44:10;;;;;;;2.92;2.25;;;;;;;10.53;61.72;98679.66;4979961;27;99159;-60
2021/01/29 11:47:01;;;;;;;2.75;2.22;;;;;;;10.50;61.61;98666.84;4997463;27;98165;-61
2021/01/29 11:49:32;;;;;;;3.05;2.20;;;;;;;10.38;62.39;98670.09;4978374;28;97687;-60
2021/01/29 11:52:27;;;;;;;2.40;2.00;;;;;;;10.37;62.41;98676.56;4978734;28;98974;-60
2021/01/29 11:55:25;;;;;;;2.20;1.75;;;;;;;10.35;62.90;98673.41;4948307;28;120701;-61
2021/01/29 11:58:43;;;;;;;2.63;1.83;;;;;;;10.29;62.04;98661.94;4977879;27;125809;-61
2021/01/29 12:01:40;;;;;;;2.17;1.48;;;;;;;10.27;62.39;98666.06;4992181;27;98119;-61
2021/01/29 12:05:08;;;;;;;2.30;1.70;;;;;;;10.22;61.96;98660.81;4984225;27;98481;-60
2021/01/29 12:07:46;;;;;;;2.78;1.33;;;;;;;10.26;62.08;98654.50;4924906;28;98246;-61
2021/01/29 12:10:51;;;;;;;2.13;1.25;;;;;;;10.25;62.34;98655.59;4984149;27;117292;-61
2021/01/29 12:13:22;;;;;;;1.80;1.30;;;;;;;10.24;62.41;98655.88;4997317;27;98165;-61
2021/01/29 12:15:57;;;;;;;2.25;1.05;;;;;;;10.28;62.94;98657.69;4980043;27;98086;-61
2021/01/29 12:18:23;;;;;;;2.03;1.08;;;;;;;10.27;63.42;98653.41;4980192;27;125197;-61
2021/01/29 12:20:49;;;;;;;1.45;1.00;;;;;;;10.30;62.93;98641.22;4979849;27;98457;-61
2021/01/29 12:23:44;;;;;;;1.25;0.70;;;;;;;10.27;63.05;98647.22;4979778;27;105364;-61
2021/01/29 12:26:46;;;;;;;1.85;0.70;;;;;;;10.26;62.58;98651.03;4986490;27;126314;-61
2021/01/29 12:29:51;;;;;;;1.03;0.57;;;;;;;10.30;62.81;98641.22;4984170;27;121626;-61
2021/01/29 12:32:26;;;;;;;1.15;0.55;;;;;;;10.26;62.56;98640.25;4997383;27;98835;-60
2021/01/29 12:35:17;;;;;;;1.15;0.45;;;;;;;10.21;63.02;98635.75;4998450;27;98184;-61
2021/01/29 12:38:21;;;;;;;1.83;0.40;;;;;;;10.22;63.27;98636.56;4997308;27;98249;-61
2021/01/29 12:41:29;;;;;;;0.75;0.35;;;;;;;10.18;63.65;98624.78;4996243;27;98934;-61
2021/01/29 12:44:52;;;;;;;0.80;0.30;;;;;;;10.11;62.99;98625.25;4967591;27;98231;-61
2021/01/29 12:47:26;;;;;;;1.20;0.30;;;;;;;10.06;63.26;98623.50;4998966;27;97804;-61
2021/01/29 12:50:37;;;;;;;1.08;0.45;;;;;;;10.06;63.81;98618.09;4993614;27;99137;-61
2021/01/29 12:53:17;;;;;;;2.25;0.30;;;;;;;9.97;64.40;98605.69;4993777;27;122059;-61
2021/01/29 12:56:12;;;;;;;1.02;0.30;;;;;;;9.91;64.05;98606.94;4972192;28;123998;-61
2021/01/29 12:58:46;;;;;;;0.95;0.30;;;;;;;9.93;64.52;98602.03;4948898;28;115094;-61
2021/01/29 13:01:34;;;;;;;1.10;0.30;;;;;;;9.92;63.92;98597.75;4961436;28;98511;-61
2021/01/29 13:04:32;;;;;;;1.25;0.50;;;;;;;9.92;64.26;98589.66;4986334;27;98945;-61